Terminal Aerodrome Forecast
Issued by NWS Jackson, MS

Home | Current Version | Previous Version | Text Only | Print | Product List | Glossary On
Versions: 1 2 3 4 5 6 7 8 9 10 11 12 13 14 15
514
FTUS44 KMEG 281130
TAFTUP
TAF
KTUP 281130Z 2812/2912 VRB03KT 6SM BR SKC
      TEMPO 2812/2813 3SM BR
     FM281400 08006KT P6SM FEW040
     FM281800 13008KT P6SM FEW040 SCT250
     FM290100 07006KT P6SM SKC=

USA.gov is the U.S. government's official web portal to all federal, state and local government web resources and services.